Red Owl, South Dakota
Current Conditions -  °F | °C
As of 2:58 AM on Thursday 23 Oct 2014 (Local Time) from KRCA Reporting Station
Clear Clear  
Wind Chill: 36°   Ceiling: Unl
Heat Index: 40°   Visibility: 10mi
Dew Point: 29°   Wind: 6mph
Humidity: 64%   Direction: 270°W
Pressure: 30"   Gusts: NA
Location:  44.7°N, 102.55°W
Report Text: KRCA 230858Z AUTO 27005KT 10SM CLR 05/M02 A3000 RMK AO2 SLP160 T00471017 57008 $
Loading
Personal Weather Stations






























Interactive Weather Map
Tropical Storm Tracking
New forecast layout! Learn more

10-Day Weather Forecast

Advertisements
Track Severe Weather on mobile